sensor_id;sensor_type;location;lat;lon;timestamp;temperature;humidity
33715;DHT22;20043;50.998;4.754;2022-12-10T00:00:50;2.20;99.90
33715;DHT22;20043;50.998;4.754;2022-12-10T00:03:16;2.20;99.90
33715;DHT22;20043;50.998;4.754;2022-12-10T00:05:42;2.10;99.90
33715;DHT22;20043;50.998;4.754;2022-12-10T00:08:07;2.10;99.90
33715;DHT22;20043;50.998;4.754;2022-12-10T00:10:33;1.90;99.90
33715;DHT22;20043;50.998;4.754;2022-12-10T00:12:58;1.80;99.90
33715;DHT22;20043;50.998;4.754;2022-12-10T00:15:24;1.90;99.90
33715;DHT22;20043;50.998;4.754;2022-12-10T00:17:49;1.80;99.90
33715;DHT22;20043;50.998;4.754;2022-12-10T00:20:15;1.90;99.90
33715;DHT22;20043;50.998;4.754;2022-12-10T00:22:40;1.80;99.90
33715;DHT22;20043;50.998;4.754;2022-12-10T00:25:06;1.90;99.90
33715;DHT22;20043;50.998;4.754;2022-12-10T00:27:31;1.90;99.90
33715;DHT22;20043;50.998;4.754;2022-12-10T00:29:57;2.00;99.90
33715;DHT22;20043;50.998;4.754;2022-12-10T00:32:22;2.20;99.90
33715;DHT22;20043;50.998;4.754;2022-12-10T00:34:48;2.20;99.90
33715;DHT22;20043;50.998;4.754;2022-12-10T00:37:13;2.30;99.90
33715;DHT22;20043;50.998;4.754;2022-12-10T00:39:39;2.30;99.90
33715;DHT22;20043;50.998;4.754;2022-12-10T00:42:04;2.20;99.90
33715;DHT22;20043;50.998;4.754;2022-12-10T00:44:29;2.00;99.90
33715;DHT22;20043;50.998;4.754;2022-12-10T00:46:55;1.80;99.90
33715;DHT22;20043;50.998;4.754;2022-12-10T00:49:20;1.60;99.90
33715;DHT22;20043;50.998;4.754;2022-12-10T00:51:48;1.60;99.90
33715;DHT22;20043;50.998;4.754;2022-12-10T00:54:14;1.50;99.90
33715;DHT22;20043;50.998;4.754;2022-12-10T00:56:39;1.40;99.90
33715;DHT22;20043;50.998;4.754;2022-12-10T00:59:05;1.40;99.90
33715;DHT22;20043;50.998;4.754;2022-12-10T01:03:58;1.40;99.90
33715;DHT22;20043;50.998;4.754;2022-12-10T01:06:28;1.60;99.90
33715;DHT22;20043;50.998;4.754;2022-12-10T01:08:55;1.80;99.90
33715;DHT22;20043;50.998;4.754;2022-12-10T01:11:21;1.90;99.90
33715;DHT22;20043;50.998;4.754;2022-12-10T01:13:47;1.90;99.90
33715;DHT22;20043;50.998;4.754;2022-12-10T01:16:14;1.90;99.90
33715;DHT22;20043;50.998;4.754;2022-12-10T01:18:40;1.90;99.90
33715;DHT22;20043;50.998;4.754;2022-12-10T01:21:07;1.60;99.90
33715;DHT22;20043;50.998;4.754;2022-12-10T01:23:33;1.40;99.90
33715;DHT22;20043;50.998;4.754;2022-12-10T01:26:03;1.30;99.90
33715;DHT22;20043;50.998;4.754;2022-12-10T01:28:29;1.30;99.90
33715;DHT22;20043;50.998;4.754;2022-12-10T01:30:55;1.40;99.90
33715;DHT22;20043;50.998;4.754;2022-12-10T01:33:20;1.50;99.90
33715;DHT22;20043;50.998;4.754;2022-12-10T01:35:46;1.60;99.90
33715;DHT22;20043;50.998;4.754;2022-12-10T01:38:11;1.70;99.90
33715;DHT22;20043;50.998;4.754;2022-12-10T01:40:37;1.90;99.90
33715;DHT22;20043;50.998;4.754;2022-12-10T01:43:03;1.90;99.90
33715;DHT22;20043;50.998;4.754;2022-12-10T01:45:29;1.80;99.90
33715;DHT22;20043;50.998;4.754;2022-12-10T01:47:54;1.70;99.90
33715;DHT22;20043;50.998;4.754;2022-12-10T01:50:19;1.60;99.90
33715;DHT22;20043;50.998;4.754;2022-12-10T01:52:45;1.50;99.90
33715;DHT22;20043;50.998;4.754;2022-12-10T01:57:55;1.50;99.90
33715;DHT22;20043;50.998;4.754;2022-12-10T02:00:20;1.50;99.90
33715;DHT22;20043;50.998;4.754;2022-12-10T02:02:49;1.60;99.90
33715;DHT22;20043;50.998;4.754;2022-12-10T02:07:51;1.60;99.90
33715;DHT22;20043;50.998;4.754;2022-12-10T02:10:22;1.60;99.90
33715;DHT22;20043;50.998;4.754;2022-12-10T02:12:52;1.60;99.90
33715;DHT22;20043;50.998;4.754;2022-12-10T02:15:21;1.50;99.90
33715;DHT22;20043;50.998;4.754;2022-12-10T02:20:37;1.60;99.90
33715;DHT22;20043;50.998;4.754;2022-12-10T02:23:08;1.70;99.90
33715;DHT22;20043;50.998;4.754;2022-12-10T02:25:49;1.70;99.90
33715;DHT22;20043;50.998;4.754;2022-12-10T02:30:53;1.90;99.90
33715;DHT22;20043;50.998;4.754;2022-12-10T02:33:19;1.90;99.90
33715;DHT22;20043;50.998;4.754;2022-12-10T02:35:46;2.00;99.90
33715;DHT22;20043;50.998;4.754;2022-12-10T02:38:20;2.10;99.90
33715;DHT22;20043;50.998;4.754;2022-12-10T02:40:50;2.30;99.90
33715;DHT22;20043;50.998;4.754;2022-12-10T02:43:17;2.30;99.90
33715;DHT22;20043;50.998;4.754;2022-12-10T02:45:42;2.10;99.90
33715;DHT22;20043;50.998;4.754;2022-12-10T02:48:08;2.10;99.90
33715;DHT22;20043;50.998;4.754;2022-12-10T02:50:34;2.30;99.90
33715;DHT22;20043;50.998;4.754;2022-12-10T02:53:00;2.30;99.90
33715;DHT22;20043;50.998;4.754;2022-12-10T02:55:26;2.20;99.90
33715;DHT22;20043;50.998;4.754;2022-12-10T03:00:21;2.20;99.90
33715;DHT22;20043;50.998;4.754;2022-12-10T03:03:01;2.10;99.90
33715;DHT22;20043;50.998;4.754;2022-12-10T03:05:38;1.90;99.90
33715;DHT22;20043;50.998;4.754;2022-12-10T03:08:17;1.80;99.90
33715;DHT22;20043;50.998;4.754;2022-12-10T03:11:08;1.60;99.90
33715;DHT22;20043;50.998;4.754;2022-12-10T03:13:32;1.50;99.90
33715;DHT22;20043;50.998;4.754;2022-12-10T03:16:01;1.50;99.90
33715;DHT22;20043;50.998;4.754;2022-12-10T03:18:27;1.50;99.90
33715;DHT22;20043;50.998;4.754;2022-12-10T03:20:55;1.40;99.90
33715;DHT22;20043;50.998;4.754;2022-12-10T03:23:23;1.40;99.90
33715;DHT22;20043;50.998;4.754;2022-12-10T03:25:48;1.40;99.90
33715;DHT22;20043;50.998;4.754;2022-12-10T03:28:15;1.40;99.90
33715;DHT22;20043;50.998;4.754;2022-12-10T03:30:43;1.50;99.90
33715;DHT22;20043;50.998;4.754;2022-12-10T03:33:09;1.50;99.90
33715;DHT22;20043;50.998;4.754;2022-12-10T03:35:34;1.30;99.90
33715;DHT22;20043;50.998;4.754;2022-12-10T03:38:00;1.20;99.90
33715;DHT22;20043;50.998;4.754;2022-12-10T03:40:26;1.10;99.90
33715;DHT22;20043;50.998;4.754;2022-12-10T03:42:51;1.20;99.90
33715;DHT22;20043;50.998;4.754;2022-12-10T03:45:17;1.20;99.90
33715;DHT22;20043;50.998;4.754;2022-12-10T03:47:42;1.30;99.90
33715;DHT22;20043;50.998;4.754;2022-12-10T03:50:09;1.50;99.90
33715;DHT22;20043;50.998;4.754;2022-12-10T03:52:34;1.70;99.90
33715;DHT22;20043;50.998;4.754;2022-12-10T03:55:00;1.80;99.90
33715;DHT22;20043;50.998;4.754;2022-12-10T03:57:26;1.70;99.90
33715;DHT22;20043;50.998;4.754;2022-12-10T03:59:52;1.70;99.90
33715;DHT22;20043;50.998;4.754;2022-12-10T04:02:17;1.50;99.90
33715;DHT22;20043;50.998;4.754;2022-12-10T04:04:42;1.70;99.90
33715;DHT22;20043;50.998;4.754;2022-12-10T04:07:08;1.70;99.90
33715;DHT22;20043;50.998;4.754;2022-12-10T04:09:34;1.70;99.90
33715;DHT22;20043;50.998;4.754;2022-12-10T04:11:59;1.70;99.90
33715;DHT22;20043;50.998;4.754;2022-12-10T04:14:26;1.60;99.90
33715;DHT22;20043;50.998;4.754;2022-12-10T04:17:10;1.60;99.90
33715;DHT22;20043;50.998;4.754;2022-12-10T04:19:42;1.60;99.90
33715;DHT22;20043;50.998;4.754;2022-12-10T04:22:08;1.60;99.90
33715;DHT22;20043;50.998;4.754;2022-12-10T04:24:52;1.50;99.90
33715;DHT22;20043;50.998;4.754;2022-12-10T04:27:37;1.50;99.90
33715;DHT22;20043;50.998;4.754;2022-12-10T04:30:04;1.40;99.90
33715;DHT22;20043;50.998;4.754;2022-12-10T04:32:30;1.40;99.90
33715;DHT22;20043;50.998;4.754;2022-12-10T04:34:55;1.40;99.90
33715;DHT22;20043;50.998;4.754;2022-12-10T04:37:21;1.50;99.90
33715;DHT22;20043;50.998;4.754;2022-12-10T04:39:48;1.40;99.90
33715;DHT22;20043;50.998;4.754;2022-12-10T04:42:14;1.40;99.90
33715;DHT22;20043;50.998;4.754;2022-12-10T04:44:39;1.20;99.90
33715;DHT22;20043;50.998;4.754;2022-12-10T04:47:05;0.90;99.90
33715;DHT22;20043;50.998;4.754;2022-12-10T04:49:31;0.70;99.90
33715;DHT22;20043;50.998;4.754;2022-12-10T04:51:57;0.70;99.90
33715;DHT22;20043;50.998;4.754;2022-12-10T04:54:22;0.80;99.90
33715;DHT22;20043;50.998;4.754;2022-12-10T04:56:48;0.80;99.90
33715;DHT22;20043;50.998;4.754;2022-12-10T04:59:20;0.80;99.90
33715;DHT22;20043;50.998;4.754;2022-12-10T05:01:45;0.80;99.90
33715;DHT22;20043;50.998;4.754;2022-12-10T05:04:12;0.80;99.90
33715;DHT22;20043;50.998;4.754;2022-12-10T05:06:38;0.90;99.90
33715;DHT22;20043;50.998;4.754;2022-12-10T05:09:04;1.00;99.90
33715;DHT22;20043;50.998;4.754;2022-12-10T05:11:30;1.10;99.90
33715;DHT22;20043;50.998;4.754;2022-12-10T05:13:56;1.20;99.90
33715;DHT22;20043;50.998;4.754;2022-12-10T05:16:22;1.30;99.90
33715;DHT22;20043;50.998;4.754;2022-12-10T05:18:48;1.30;99.90
33715;DHT22;20043;50.998;4.754;2022-12-10T05:21:15;1.30;99.90
33715;DHT22;20043;50.998;4.754;2022-12-10T05:23:42;1.10;99.90
33715;DHT22;20043;50.998;4.754;2022-12-10T05:28:35;0.80;99.90
33715;DHT22;20043;50.998;4.754;2022-12-10T05:31:00;0.90;99.90
33715;DHT22;20043;50.998;4.754;2022-12-10T05:33:26;1.00;99.90
33715;DHT22;20043;50.998;4.754;2022-12-10T05:35:55;1.20;99.90
33715;DHT22;20043;50.998;4.754;2022-12-10T05:38:21;1.20;99.90
33715;DHT22;20043;50.998;4.754;2022-12-10T05:40:47;1.30;99.90
33715;DHT22;20043;50.998;4.754;2022-12-10T05:43:13;1.30;99.90
33715;DHT22;20043;50.998;4.754;2022-12-10T05:45:38;1.30;99.90
33715;DHT22;20043;50.998;4.754;2022-12-10T05:48:04;1.30;99.90
33715;DHT22;20043;50.998;4.754;2022-12-10T05:50:33;1.20;99.90
33715;DHT22;20043;50.998;4.754;2022-12-10T05:52:58;1.20;99.90
33715;DHT22;20043;50.998;4.754;2022-12-10T05:55:24;1.20;99.90
33715;DHT22;20043;50.998;4.754;2022-12-10T05:57:50;1.30;99.90
33715;DHT22;20043;50.998;4.754;2022-12-10T06:00:15;1.40;99.90
33715;DHT22;20043;50.998;4.754;2022-12-10T06:02:41;1.40;99.90
33715;DHT22;20043;50.998;4.754;2022-12-10T06:05:06;1.60;99.90
33715;DHT22;20043;50.998;4.754;2022-12-10T06:07:32;1.70;99.90
33715;DHT22;20043;50.998;4.754;2022-12-10T06:09:57;1.70;99.90
33715;DHT22;20043;50.998;4.754;2022-12-10T06:12:23;1.80;99.90
33715;DHT22;20043;50.998;4.754;2022-12-10T06:14:48;1.70;99.90
33715;DHT22;20043;50.998;4.754;2022-12-10T06:17:14;1.70;99.90
33715;DHT22;20043;50.998;4.754;2022-12-10T06:19:39;1.80;99.90
33715;DHT22;20043;50.998;4.754;2022-12-10T06:22:04;1.80;99.90
33715;DHT22;20043;50.998;4.754;2022-12-10T06:24:30;1.70;99.90
33715;DHT22;20043;50.998;4.754;2022-12-10T06:26:55;1.70;99.90
33715;DHT22;20043;50.998;4.754;2022-12-10T06:29:21;1.50;99.90
33715;DHT22;20043;50.998;4.754;2022-12-10T06:31:46;1.40;99.90
33715;DHT22;20043;50.998;4.754;2022-12-10T06:34:12;1.40;99.90
33715;DHT22;20043;50.998;4.754;2022-12-10T06:36:37;1.40;99.90
33715;DHT22;20043;50.998;4.754;2022-12-10T06:39:10;1.20;99.90
33715;DHT22;20043;50.998;4.754;2022-12-10T06:41:35;1.30;99.90
33715;DHT22;20043;50.998;4.754;2022-12-10T06:44:01;1.30;99.90
33715;DHT22;20043;50.998;4.754;2022-12-10T06:46:26;1.50;99.90
33715;DHT22;20043;50.998;4.754;2022-12-10T06:48:53;1.50;99.90
33715;DHT22;20043;50.998;4.754;2022-12-10T06:51:19;1.50;99.90
33715;DHT22;20043;50.998;4.754;2022-12-10T06:53:44;1.60;99.90
33715;DHT22;20043;50.998;4.754;2022-12-10T06:56:14;1.70;99.90
33715;DHT22;20043;50.998;4.754;2022-12-10T06:58:41;1.80;99.90
33715;DHT22;20043;50.998;4.754;2022-12-10T07:01:08;1.80;99.90
33715;DHT22;20043;50.998;4.754;2022-12-10T07:03:34;1.80;99.90
33715;DHT22;20043;50.998;4.754;2022-12-10T07:06:00;1.70;99.90
33715;DHT22;20043;50.998;4.754;2022-12-10T07:08:26;1.70;99.90
33715;DHT22;20043;50.998;4.754;2022-12-10T07:10:52;1.70;99.90
33715;DHT22;20043;50.998;4.754;2022-12-10T07:13:17;1.70;99.90
33715;DHT22;20043;50.998;4.754;2022-12-10T07:15:43;1.70;99.90
33715;DHT22;20043;50.998;4.754;2022-12-10T07:18:08;1.60;99.90
33715;DHT22;20043;50.998;4.754;2022-12-10T07:20:34;1.70;99.90
33715;DHT22;20043;50.998;4.754;2022-12-10T07:22:59;1.80;99.90
33715;DHT22;20043;50.998;4.754;2022-12-10T07:25:25;1.90;99.90
33715;DHT22;20043;50.998;4.754;2022-12-10T07:27:50;1.90;99.90
33715;DHT22;20043;50.998;4.754;2022-12-10T07:30:16;1.90;99.90
33715;DHT22;20043;50.998;4.754;2022-12-10T07:32:41;1.70;99.90
33715;DHT22;20043;50.998;4.754;2022-12-10T07:35:07;1.60;99.90
33715;DHT22;20043;50.998;4.754;2022-12-10T07:37:32;1.60;99.90
33715;DHT22;20043;50.998;4.754;2022-12-10T07:39:58;1.50;99.90
33715;DHT22;20043;50.998;4.754;2022-12-10T07:42:23;1.50;99.90
33715;DHT22;20043;50.998;4.754;2022-12-10T07:44:49;1.40;99.90
33715;DHT22;20043;50.998;4.754;2022-12-10T07:47:14;1.30;99.90
33715;DHT22;20043;50.998;4.754;2022-12-10T07:49:40;1.30;99.90
33715;DHT22;20043;50.998;4.754;2022-12-10T07:52:06;1.50;99.90
33715;DHT22;20043;50.998;4.754;2022-12-10T07:54:31;1.40;99.90
33715;DHT22;20043;50.998;4.754;2022-12-10T07:56:57;1.20;99.90
33715;DHT22;20043;50.998;4.754;2022-12-10T07:59:22;1.00;99.90
33715;DHT22;20043;50.998;4.754;2022-12-10T08:01:48;1.00;99.90
33715;DHT22;20043;50.998;4.754;2022-12-10T08:04:14;0.90;99.90
33715;DHT22;20043;50.998;4.754;2022-12-10T08:06:40;0.80;99.90
33715;DHT22;20043;50.998;4.754;2022-12-10T08:09:05;0.70;99.90
33715;DHT22;20043;50.998;4.754;2022-12-10T08:11:31;0.60;99.90
33715;DHT22;20043;50.998;4.754;2022-12-10T08:13:57;0.50;99.90
33715;DHT22;20043;50.998;4.754;2022-12-10T08:16:25;0.50;99.90
33715;DHT22;20043;50.998;4.754;2022-12-10T08:18:50;0.50;99.90
33715;DHT22;20043;50.998;4.754;2022-12-10T08:21:17;0.70;99.90
33715;DHT22;20043;50.998;4.754;2022-12-10T08:23:43;0.70;99.90
33715;DHT22;20043;50.998;4.754;2022-12-10T08:26:09;0.80;99.90
33715;DHT22;20043;50.998;4.754;2022-12-10T08:28:35;1.00;99.90
33715;DHT22;20043;50.998;4.754;2022-12-10T08:31:01;1.10;99.90
33715;DHT22;20043;50.998;4.754;2022-12-10T08:33:27;1.20;99.90
33715;DHT22;20043;50.998;4.754;2022-12-10T08:35:56;1.30;99.90
33715;DHT22;20043;50.998;4.754;2022-12-10T08:38:22;1.20;99.90
33715;DHT22;20043;50.998;4.754;2022-12-10T08:40:47;1.20;99.90
33715;DHT22;20043;50.998;4.754;2022-12-10T08:43:13;1.10;99.90
33715;DHT22;20043;50.998;4.754;2022-12-10T08:45:38;1.10;99.90
33715;DHT22;20043;50.998;4.754;2022-12-10T08:48:04;1.20;99.90
33715;DHT22;20043;50.998;4.754;2022-12-10T08:50:29;1.20;99.90
33715;DHT22;20043;50.998;4.754;2022-12-10T08:52:55;1.20;99.90
33715;DHT22;20043;50.998;4.754;2022-12-10T08:55:20;1.20;99.90
33715;DHT22;20043;50.998;4.754;2022-12-10T08:57:46;1.20;99.90
33715;DHT22;20043;50.998;4.754;2022-12-10T09:00:12;1.30;99.90
33715;DHT22;20043;50.998;4.754;2022-12-10T09:02:38;1.20;99.90
33715;DHT22;20043;50.998;4.754;2022-12-10T09:05:04;1.20;99.90
33715;DHT22;20043;50.998;4.754;2022-12-10T09:07:30;1.10;99.90
33715;DHT22;20043;50.998;4.754;2022-12-10T09:09:55;1.10;99.90
33715;DHT22;20043;50.998;4.754;2022-12-10T09:12:21;1.10;99.90
33715;DHT22;20043;50.998;4.754;2022-12-10T09:14:46;1.00;99.90
33715;DHT22;20043;50.998;4.754;2022-12-10T09:17:11;1.00;99.90
33715;DHT22;20043;50.998;4.754;2022-12-10T09:19:37;1.00;99.90
33715;DHT22;20043;50.998;4.754;2022-12-10T09:22:02;1.00;99.90
33715;DHT22;20043;50.998;4.754;2022-12-10T09:24:28;1.10;99.90
33715;DHT22;20043;50.998;4.754;2022-12-10T09:26:53;1.00;99.90
33715;DHT22;20043;50.998;4.754;2022-12-10T09:29:19;1.10;99.90
33715;DHT22;20043;50.998;4.754;2022-12-10T09:31:44;1.10;99.90
33715;DHT22;20043;50.998;4.754;2022-12-10T09:34:10;1.10;99.90
33715;DHT22;20043;50.998;4.754;2022-12-10T09:36:35;1.30;99.90
33715;DHT22;20043;50.998;4.754;2022-12-10T09:39:01;1.40;99.90
33715;DHT22;20043;50.998;4.754;2022-12-10T09:44:10;1.60;99.90
33715;DHT22;20043;50.998;4.754;2022-12-10T09:46:44;1.40;99.90
33715;DHT22;20043;50.998;4.754;2022-12-10T09:51:40;1.70;99.90
33715;DHT22;20043;50.998;4.754;2022-12-10T09:54:18;1.60;99.90
33715;DHT22;20043;50.998;4.754;2022-12-10T09:56:44;1.70;99.90
33715;DHT22;20043;50.998;4.754;2022-12-10T09:59:20;1.60;99.90
33715;DHT22;20043;50.998;4.754;2022-12-10T10:01:48;1.80;99.90
33715;DHT22;20043;50.998;4.754;2022-12-10T10:04:16;1.80;99.90
33715;DHT22;20043;50.998;4.754;2022-12-10T10:06:41;1.70;99.90
33715;DHT22;20043;50.998;4.754;2022-12-10T10:09:07;1.70;99.90
33715;DHT22;20043;50.998;4.754;2022-12-10T10:11:35;1.60;99.90
33715;DHT22;20043;50.998;4.754;2022-12-10T10:14:04;1.40;99.90
33715;DHT22;20043;50.998;4.754;2022-12-10T10:18:58;1.30;99.90
33715;DHT22;20043;50.998;4.754;2022-12-10T10:23:56;1.40;99.90
33715;DHT22;20043;50.998;4.754;2022-12-10T10:26:25;1.30;99.90
33715;DHT22;20043;50.998;4.754;2022-12-10T10:28:54;1.20;99.90
33715;DHT22;20043;50.998;4.754;2022-12-10T10:31:24;1.20;99.90
33715;DHT22;20043;50.998;4.754;2022-12-10T10:33:52;1.30;99.90
33715;DHT22;20043;50.998;4.754;2022-12-10T10:36:25;1.50;99.90
33715;DHT22;20043;50.998;4.754;2022-12-10T10:38:51;1.70;99.90
33715;DHT22;20043;50.998;4.754;2022-12-10T10:41:17;1.70;99.90
33715;DHT22;20043;50.998;4.754;2022-12-10T10:43:43;1.70;99.90
33715;DHT22;20043;50.998;4.754;2022-12-10T10:46:22;1.50;99.90
33715;DHT22;20043;50.998;4.754;2022-12-10T10:48:48;1.30;99.90
33715;DHT22;20043;50.998;4.754;2022-12-10T10:53:44;1.10;99.90
33715;DHT22;20043;50.998;4.754;2022-12-10T10:56:17;0.90;99.90
33715;DHT22;20043;50.998;4.754;2022-12-10T11:01:17;1.00;99.90
33715;DHT22;20043;50.998;4.754;2022-12-10T11:03:47;1.10;99.90
33715;DHT22;20043;50.998;4.754;2022-12-10T11:06:13;1.10;99.90
33715;DHT22;20043;50.998;4.754;2022-12-10T11:08:39;1.00;99.90
33715;DHT22;20043;50.998;4.754;2022-12-10T11:11:06;1.10;99.90
33715;DHT22;20043;50.998;4.754;2022-12-10T11:13:35;1.10;99.90
33715;DHT22;20043;50.998;4.754;2022-12-10T11:18:51;1.50;99.90
33715;DHT22;20043;50.998;4.754;2022-12-10T11:21:19;1.60;99.90
33715;DHT22;20043;50.998;4.754;2022-12-10T11:23:48;1.70;99.90
33715;DHT22;20043;50.998;4.754;2022-12-10T11:36:54;1.60;99.90
33715;DHT22;20043;50.998;4.754;2022-12-10T11:39:44;1.60;99.90
33715;DHT22;20043;50.998;4.754;2022-12-10T11:44:45;1.60;99.90
33715;DHT22;20043;50.998;4.754;2022-12-10T11:54:44;2.10;99.90
33715;DHT22;20043;50.998;4.754;2022-12-10T11:59:53;1.80;99.90
33715;DHT22;20043;50.998;4.754;2022-12-10T12:05:14;1.80;99.90
33715;DHT22;20043;50.998;4.754;2022-12-10T12:07:54;1.90;99.90
33715;DHT22;20043;50.998;4.754;2022-12-10T12:10:33;2.00;99.90
33715;DHT22;20043;50.998;4.754;2022-12-10T12:13:16;2.10;99.90
33715;DHT22;20043;50.998;4.754;2022-12-10T12:15:44;1.90;99.90
33715;DHT22;20043;50.998;4.754;2022-12-10T12:18:27;1.80;99.90
33715;DHT22;20043;50.998;4.754;2022-12-10T12:20:58;1.80;99.90
33715;DHT22;20043;50.998;4.754;2022-12-10T12:23:29;1.80;99.90
33715;DHT22;20043;50.998;4.754;2022-12-10T12:26:01;1.70;99.90
33715;DHT22;20043;50.998;4.754;2022-12-10T12:28:31;1.80;99.90
33715;DHT22;20043;50.998;4.754;2022-12-10T12:31:02;2.00;99.90
33715;DHT22;20043;50.998;4.754;2022-12-10T12:34:05;2.20;99.90
33715;DHT22;20043;50.998;4.754;2022-12-10T12:36:32;2.20;99.90
33715;DHT22;20043;50.998;4.754;2022-12-10T12:39:12;2.20;99.90
33715;DHT22;20043;50.998;4.754;2022-12-10T12:46:58;2.30;99.90
33715;DHT22;20043;50.998;4.754;2022-12-10T12:49:28;2.40;99.90
33715;DHT22;20043;50.998;4.754;2022-12-10T12:52:02;2.40;99.90
33715;DHT22;20043;50.998;4.754;2022-12-10T12:54:30;2.40;99.90
33715;DHT22;20043;50.998;4.754;2022-12-10T12:59:34;2.70;99.90
33715;DHT22;20043;50.998;4.754;2022-12-10T13:02:16;2.80;99.90
33715;DHT22;20043;50.998;4.754;2022-12-10T13:04:44;2.70;99.90
33715;DHT22;20043;50.998;4.754;2022-12-10T13:07:26;2.70;99.90
33715;DHT22;20043;50.998;4.754;2022-12-10T13:10:07;2.60;99.90
33715;DHT22;20043;50.998;4.754;2022-12-10T13:15:38;2.30;99.90
33715;DHT22;20043;50.998;4.754;2022-12-10T13:20:40;2.30;99.90
33715;DHT22;20043;50.998;4.754;2022-12-10T13:25:55;2.50;99.90
33715;DHT22;20043;50.998;4.754;2022-12-10T13:31:05;2.50;99.90
33715;DHT22;20043;50.998;4.754;2022-12-10T13:36:11;2.60;99.90
33715;DHT22;20043;50.998;4.754;2022-12-10T13:38:57;2.70;99.90
33715;DHT22;20043;50.998;4.754;2022-12-10T13:41:23;2.90;99.90
33715;DHT22;20043;50.998;4.754;2022-12-10T13:49:20;3.10;99.90
33715;DHT22;20043;50.998;4.754;2022-12-10T13:54:31;3.00;99.90
33715;DHT22;20043;50.998;4.754;2022-12-10T14:02:14;3.00;99.90
33715;DHT22;20043;50.998;4.754;2022-12-10T14:07:23;2.80;99.90
33715;DHT22;20043;50.998;4.754;2022-12-10T14:09:53;2.80;99.90
33715;DHT22;20043;50.998;4.754;2022-12-10T14:12:24;3.00;99.90
33715;DHT22;20043;50.998;4.754;2022-12-10T14:14:52;3.10;99.90
33715;DHT22;20043;50.998;4.754;2022-12-10T14:17:20;3.10;99.90
33715;DHT22;20043;50.998;4.754;2022-12-10T14:19:47;3.10;99.90
33715;DHT22;20043;50.998;4.754;2022-12-10T14:22:18;3.10;99.90
33715;DHT22;20043;50.998;4.754;2022-12-10T14:24:45;3.10;99.90
33715;DHT22;20043;50.998;4.754;2022-12-10T14:27:14;3.30;99.90
33715;DHT22;20043;50.998;4.754;2022-12-10T14:29:46;3.30;99.90
33715;DHT22;20043;50.998;4.754;2022-12-10T14:32:13;3.30;99.90
33715;DHT22;20043;50.998;4.754;2022-12-10T14:34:39;3.30;99.90
33715;DHT22;20043;50.998;4.754;2022-12-10T14:37:05;3.20;99.90
33715;DHT22;20043;50.998;4.754;2022-12-10T14:39:31;3.10;99.90
33715;DHT22;20043;50.998;4.754;2022-12-10T14:41:59;3.10;99.90
33715;DHT22;20043;50.998;4.754;2022-12-10T14:44:26;3.10;99.90
33715;DHT22;20043;50.998;4.754;2022-12-10T14:46:57;3.10;99.90
33715;DHT22;20043;50.998;4.754;2022-12-10T14:49:27;3.10;99.90
33715;DHT22;20043;50.998;4.754;2022-12-10T14:51:52;3.10;99.90
33715;DHT22;20043;50.998;4.754;2022-12-10T14:56:52;3.10;99.90
33715;DHT22;20043;50.998;4.754;2022-12-10T14:59:22;3.10;99.90
33715;DHT22;20043;50.998;4.754;2022-12-10T15:01:51;3.10;99.90
33715;DHT22;20043;50.998;4.754;2022-12-10T15:04:19;2.90;99.90
33715;DHT22;20043;50.998;4.754;2022-12-10T15:06:44;3.00;99.90
33715;DHT22;20043;50.998;4.754;2022-12-10T15:09:18;2.90;99.90
33715;DHT22;20043;50.998;4.754;2022-12-10T15:11:44;2.90;99.90
33715;DHT22;20043;50.998;4.754;2022-12-10T15:14:15;3.00;99.90
33715;DHT22;20043;50.998;4.754;2022-12-10T15:16:42;3.00;99.90
33715;DHT22;20043;50.998;4.754;2022-12-10T15:21:50;2.90;99.90
33715;DHT22;20043;50.998;4.754;2022-12-10T15:24:20;3.00;99.90
33715;DHT22;20043;50.998;4.754;2022-12-10T15:26:47;2.90;99.90
33715;DHT22;20043;50.998;4.754;2022-12-10T15:31:49;2.80;99.90
33715;DHT22;20043;50.998;4.754;2022-12-10T15:34:15;2.80;99.90
33715;DHT22;20043;50.998;4.754;2022-12-10T15:39:13;2.70;99.90
33715;DHT22;20043;50.998;4.754;2022-12-10T15:41:53;2.70;99.90
33715;DHT22;20043;50.998;4.754;2022-12-10T15:44:27;2.70;99.90
33715;DHT22;20043;50.998;4.754;2022-12-10T15:49:36;2.90;99.90
33715;DHT22;20043;50.998;4.754;2022-12-10T15:52:02;2.90;99.90
33715;DHT22;20043;50.998;4.754;2022-12-10T15:54:31;2.90;99.90
33715;DHT22;20043;50.998;4.754;2022-12-10T15:56:57;2.90;99.90
33715;DHT22;20043;50.998;4.754;2022-12-10T15:59:22;2.90;99.90
33715;DHT22;20043;50.998;4.754;2022-12-10T16:01:48;2.80;99.90
33715;DHT22;20043;50.998;4.754;2022-12-10T16:04:13;2.70;99.90
33715;DHT22;20043;50.998;4.754;2022-12-10T16:06:39;2.80;99.90
33715;DHT22;20043;50.998;4.754;2022-12-10T16:09:05;3.10;99.90
33715;DHT22;20043;50.998;4.754;2022-12-10T16:11:30;3.10;99.90
33715;DHT22;20043;50.998;4.754;2022-12-10T16:13:56;3.10;99.90
33715;DHT22;20043;50.998;4.754;2022-12-10T16:16:22;2.90;99.90
33715;DHT22;20043;50.998;4.754;2022-12-10T16:18:47;2.70;99.90
33715;DHT22;20043;50.998;4.754;2022-12-10T16:21:13;2.60;99.90
33715;DHT22;20043;50.998;4.754;2022-12-10T16:23:38;2.60;99.90
33715;DHT22;20043;50.998;4.754;2022-12-10T16:26:17;2.50;99.90
33715;DHT22;20043;50.998;4.754;2022-12-10T16:28:43;2.50;99.90
33715;DHT22;20043;50.998;4.754;2022-12-10T16:31:10;2.60;99.90
33715;DHT22;20043;50.998;4.754;2022-12-10T16:33:36;2.80;99.90
33715;DHT22;20043;50.998;4.754;2022-12-10T16:36:02;2.90;99.90
33715;DHT22;20043;50.998;4.754;2022-12-10T16:38:27;2.90;99.90
33715;DHT22;20043;50.998;4.754;2022-12-10T16:40:53;2.80;99.90
33715;DHT22;20043;50.998;4.754;2022-12-10T16:43:20;2.80;99.90
33715;DHT22;20043;50.998;4.754;2022-12-10T16:45:45;2.90;99.90
33715;DHT22;20043;50.998;4.754;2022-12-10T16:48:11;2.90;99.90
33715;DHT22;20043;50.998;4.754;2022-12-10T16:50:37;3.00;99.90
33715;DHT22;20043;50.998;4.754;2022-12-10T16:53:05;3.10;99.90
33715;DHT22;20043;50.998;4.754;2022-12-10T16:55:32;3.10;99.90
33715;DHT22;20043;50.998;4.754;2022-12-10T16:57:58;3.00;99.90
33715;DHT22;20043;50.998;4.754;2022-12-10T17:00:24;2.90;99.90
33715;DHT22;20043;50.998;4.754;2022-12-10T17:02:50;3.00;99.90
33715;DHT22;20043;50.998;4.754;2022-12-10T17:05:29;3.00;99.90
33715;DHT22;20043;50.998;4.754;2022-12-10T17:07:56;3.00;99.90
33715;DHT22;20043;50.998;4.754;2022-12-10T17:10:21;3.10;99.90
33715;DHT22;20043;50.998;4.754;2022-12-10T17:13:13;3.10;99.90
33715;DHT22;20043;50.998;4.754;2022-12-10T17:15:39;3.00;99.90
33715;DHT22;20043;50.998;4.754;2022-12-10T17:18:05;3.00;99.90
33715;DHT22;20043;50.998;4.754;2022-12-10T17:20:31;2.90;99.90
33715;DHT22;20043;50.998;4.754;2022-12-10T17:22:56;3.00;99.90
33715;DHT22;20043;50.998;4.754;2022-12-10T17:25:21;2.90;99.90
33715;DHT22;20043;50.998;4.754;2022-12-10T17:27:47;2.80;99.90
33715;DHT22;20043;50.998;4.754;2022-12-10T17:30:13;2.70;99.90
33715;DHT22;20043;50.998;4.754;2022-12-10T17:32:39;2.80;99.90
33715;DHT22;20043;50.998;4.754;2022-12-10T17:35:05;2.90;99.90
33715;DHT22;20043;50.998;4.754;2022-12-10T17:37:34;3.00;99.90
33715;DHT22;20043;50.998;4.754;2022-12-10T17:40:00;3.00;99.90